sensor_id;sensor_type;location;lat;lon;timestamp;pressure;altitude;pressure_sealevel;temperature;humidity
62978;BME280;49073;42.352;23.808;2023-09-07T00:02:30;95247.00;;;18.32;100.00
62978;BME280;49073;42.352;23.808;2023-09-07T00:05:31;95241.59;;;18.28;100.00
62978;BME280;49073;42.352;23.808;2023-09-07T00:08:32;95238.53;;;18.23;100.00
62978;BME280;49073;42.352;23.808;2023-09-07T00:11:33;95237.75;;;18.18;100.00
62978;BME280;49073;42.352;23.808;2023-09-07T00:14:34;95240.09;;;18.20;100.00
62978;BME280;49073;42.352;23.808;2023-09-07T00:17:35;95234.31;;;18.14;100.00
62978;BME280;49073;42.352;23.808;2023-09-07T00:20:35;95238.91;;;18.17;100.00
62978;BME280;49073;42.352;23.808;2023-09-07T00:23:36;95233.56;;;18.07;100.00
62978;BME280;49073;42.352;23.808;2023-09-07T00:26:37;95230.47;;;18.01;100.00
62978;BME280;49073;42.352;23.808;2023-09-07T00:29:38;95238.19;;;18.06;100.00
62978;BME280;49073;42.352;23.808;2023-09-07T00:32:39;95232.78;;;17.92;100.00
62978;BME280;49073;42.352;23.808;2023-09-07T00:35:40;95231.63;;;17.85;100.00
62978;BME280;49073;42.352;23.808;2023-09-07T00:38:41;95231.22;;;17.87;100.00
62978;BME280;49073;42.352;23.808;2023-09-07T00:41:41;95233.19;;;17.79;100.00
62978;BME280;49073;42.352;23.808;2023-09-07T00:44:42;95228.19;;;17.74;100.00
62978;BME280;49073;42.352;23.808;2023-09-07T00:47:42;95228.16;;;17.78;100.00
62978;BME280;49073;42.352;23.808;2023-09-07T00:50:44;95223.94;;;17.80;100.00
62978;BME280;49073;42.352;23.808;2023-09-07T00:53:44;95227.78;;;17.76;100.00
62978;BME280;49073;42.352;23.808;2023-09-07T00:56:45;95228.94;;;17.74;100.00
62978;BME280;49073;42.352;23.808;2023-09-07T00:59:46;95228.56;;;17.76;100.00
62978;BME280;49073;42.352;23.808;2023-09-07T01:02:46;95231.25;;;17.83;100.00
62978;BME280;49073;42.352;23.808;2023-09-07T01:05:54;95226.25;;;17.74;100.00
62978;BME280;49073;42.352;23.808;2023-09-07T01:09:03;95223.53;;;17.82;100.00
62978;BME280;49073;42.352;23.808;2023-09-07T01:12:14;95215.81;;;17.95;100.00
62978;BME280;49073;42.352;23.808;2023-09-07T01:15:14;95209.31;;;17.74;100.00
62978;BME280;49073;42.352;23.808;2023-09-07T01:18:15;95218.56;;;17.73;100.00
62978;BME280;49073;42.352;23.808;2023-09-07T01:21:17;95218.91;;;17.86;100.00
62978;BME280;49073;42.352;23.808;2023-09-07T01:24:20;95211.22;;;17.92;100.00
62978;BME280;49073;42.352;23.808;2023-09-07T01:27:21;95215.06;;;17.91;100.00
62978;BME280;49073;42.352;23.808;2023-09-07T01:30:21;95213.91;;;17.92;100.00
62978;BME280;49073;42.352;23.808;2023-09-07T01:33:22;95209.69;;;18.01;100.00
62978;BME280;49073;42.352;23.808;2023-09-07T01:36:23;95208.91;;;17.94;100.00
62978;BME280;49073;42.352;23.808;2023-09-07T01:39:23;95215.81;;;17.91;100.00
62978;BME280;49073;42.352;23.808;2023-09-07T01:42:24;95219.69;;;17.86;100.00
62978;BME280;49073;42.352;23.808;2023-09-07T01:45:24;95210.44;;;17.87;100.00
62978;BME280;49073;42.352;23.808;2023-09-07T01:48:25;95210.44;;;17.91;100.00
62978;BME280;49073;42.352;23.808;2023-09-07T01:51:25;95217.38;;;17.88;100.00
62978;BME280;49073;42.352;23.808;2023-09-07T01:54:28;95209.69;;;17.83;100.00
62978;BME280;49073;42.352;23.808;2023-09-07T01:57:28;95209.31;;;17.81;100.00
62978;BME280;49073;42.352;23.808;2023-09-07T02:00:29;95214.28;;;17.90;100.00
62978;BME280;49073;42.352;23.808;2023-09-07T02:03:30;95210.81;;;17.86;100.00
62978;BME280;49073;42.352;23.808;2023-09-07T02:06:30;95208.50;;;17.95;100.00
62978;BME280;49073;42.352;23.808;2023-09-07T02:09:31;95204.28;;;17.91;100.00
62978;BME280;49073;42.352;23.808;2023-09-07T02:12:31;95209.69;;;17.80;100.00
62978;BME280;49073;42.352;23.808;2023-09-07T02:15:32;95207.75;;;17.80;100.00
62978;BME280;49073;42.352;23.808;2023-09-07T02:18:33;95203.53;;;17.79;100.00
62978;BME280;49073;42.352;23.808;2023-09-07T02:21:33;95212.38;;;17.87;100.00
62978;BME280;49073;42.352;23.808;2023-09-07T02:24:34;95218.13;;;17.96;100.00
62978;BME280;49073;42.352;23.808;2023-09-07T02:27:35;95216.59;;;18.06;100.00
62978;BME280;49073;42.352;23.808;2023-09-07T02:30:36;95210.81;;;17.93;100.00
62978;BME280;49073;42.352;23.808;2023-09-07T02:33:36;95222.75;;;17.85;100.00
62978;BME280;49073;42.352;23.808;2023-09-07T02:36:37;95220.06;;;17.88;100.00
62978;BME280;49073;42.352;23.808;2023-09-07T02:39:37;95220.84;;;17.85;100.00
62978;BME280;49073;42.352;23.808;2023-09-07T02:42:38;95214.31;;;17.79;100.00
62978;BME280;49073;42.352;23.808;2023-09-07T02:45:38;95217.38;;;17.81;100.00
62978;BME280;49073;42.352;23.808;2023-09-07T02:48:39;95213.53;;;17.82;100.00
62978;BME280;49073;42.352;23.808;2023-09-07T02:51:40;95207.75;;;17.84;100.00
62978;BME280;49073;42.352;23.808;2023-09-07T02:54:41;95210.81;;;17.93;100.00
62978;BME280;49073;42.352;23.808;2023-09-07T02:57:42;95213.16;;;17.80;100.00
62978;BME280;49073;42.352;23.808;2023-09-07T03:00:43;95217.78;;;17.83;100.00
62978;BME280;49073;42.352;23.808;2023-09-07T03:03:47;95222.78;;;17.74;100.00
62978;BME280;49073;42.352;23.808;2023-09-07T03:06:47;95221.25;;;17.80;100.00
62978;BME280;49073;42.352;23.808;2023-09-07T03:09:48;95218.53;;;17.80;100.00
62978;BME280;49073;42.352;23.808;2023-09-07T03:12:49;95213.91;;;17.88;100.00
62978;BME280;49073;42.352;23.808;2023-09-07T03:15:53;95219.31;;;17.59;100.00
62978;BME280;49073;42.352;23.808;2023-09-07T03:18:54;95217.00;;;17.54;100.00
62978;BME280;49073;42.352;23.808;2023-09-07T03:21:55;95211.63;;;17.68;100.00
62978;BME280;49073;42.352;23.808;2023-09-07T03:24:55;95210.84;;;17.75;100.00
62978;BME280;49073;42.352;23.808;2023-09-07T03:27:56;95212.41;;;17.69;100.00
62978;BME280;49073;42.352;23.808;2023-09-07T03:30:56;95217.78;;;17.62;100.00
62978;BME280;49073;42.352;23.808;2023-09-07T03:33:57;95210.84;;;17.57;100.00
62978;BME280;49073;42.352;23.808;2023-09-07T03:36:57;95222.00;;;17.34;100.00
62978;BME280;49073;42.352;23.808;2023-09-07T03:39:58;95218.94;;;17.32;100.00
62978;BME280;49073;42.352;23.808;2023-09-07T03:42:58;95223.91;;;17.33;100.00
62978;BME280;49073;42.352;23.808;2023-09-07T03:45:59;95229.31;;;17.15;100.00
62978;BME280;49073;42.352;23.808;2023-09-07T03:48:59;95223.16;;;17.18;100.00
62978;BME280;49073;42.352;23.808;2023-09-07T03:52:00;95230.06;;;17.23;100.00
62978;BME280;49073;42.352;23.808;2023-09-07T03:55:01;95227.38;;;17.19;100.00
62978;BME280;49073;42.352;23.808;2023-09-07T03:58:02;95239.69;;;17.27;100.00
62978;BME280;49073;42.352;23.808;2023-09-07T04:01:03;95234.28;;;17.16;100.00
62978;BME280;49073;42.352;23.808;2023-09-07T04:04:05;95232.00;;;17.29;100.00
62978;BME280;49073;42.352;23.808;2023-09-07T04:07:05;95228.53;;;17.18;100.00
62978;BME280;49073;42.352;23.808;2023-09-07T04:10:06;95232.38;;;17.24;100.00
62978;BME280;49073;42.352;23.808;2023-09-07T04:13:07;95235.84;;;17.14;100.00
62978;BME280;49073;42.352;23.808;2023-09-07T04:16:08;95243.53;;;17.23;100.00
62978;BME280;49073;42.352;23.808;2023-09-07T04:19:10;95241.63;;;17.30;100.00
62978;BME280;49073;42.352;23.808;2023-09-07T04:22:11;95238.13;;;17.23;100.00
62978;BME280;49073;42.352;23.808;2023-09-07T04:25:11;95247.00;;;17.23;100.00
62978;BME280;49073;42.352;23.808;2023-09-07T04:28:12;95245.06;;;17.13;100.00
62978;BME280;49073;42.352;23.808;2023-09-07T04:31:12;95243.50;;;17.08;100.00
62978;BME280;49073;42.352;23.808;2023-09-07T04:34:14;95246.59;;;17.18;100.00
62978;BME280;49073;42.352;23.808;2023-09-07T04:37:14;95244.66;;;17.14;100.00
62978;BME280;49073;42.352;23.808;2023-09-07T04:40:15;95243.13;;;17.10;100.00
62978;BME280;49073;42.352;23.808;2023-09-07T04:43:15;95241.19;;;17.03;100.00
62978;BME280;49073;42.352;23.808;2023-09-07T04:46:16;95248.41;;;16.88;100.00
62978;BME280;49073;42.352;23.808;2023-09-07T04:49:17;95241.13;;;16.92;100.00
62978;BME280;49073;42.352;23.808;2023-09-07T04:52:18;95240.34;;;16.84;100.00
62978;BME280;49073;42.352;23.808;2023-09-07T04:55:18;95243.81;;;16.92;100.00
62978;BME280;49073;42.352;23.808;2023-09-07T04:58:19;95247.72;;;17.06;100.00
62978;BME280;49073;42.352;23.808;2023-09-07T05:01:20;95245.41;;;17.08;100.00
62978;BME280;49073;42.352;23.808;2023-09-07T05:04:20;95251.59;;;17.08;100.00
62978;BME280;49073;42.352;23.808;2023-09-07T05:07:21;95252.00;;;17.14;100.00
62978;BME280;49073;42.352;23.808;2023-09-07T18:34:25;95216.53;;;19.73;80.52
62978;BME280;49073;42.352;23.808;2023-09-07T18:37:26;95207.06;;;19.51;81.36
62978;BME280;49073;42.352;23.808;2023-09-07T18:40:28;95213.69;;;19.42;81.56
62978;BME280;49073;42.352;23.808;2023-09-07T18:43:29;95208.34;;;19.35;81.92
62978;BME280;49073;42.352;23.808;2023-09-07T18:46:29;95212.59;;;19.36;82.17
62978;BME280;49073;42.352;23.808;2023-09-07T18:49:30;95214.50;;;19.36;82.54
62978;BME280;49073;42.352;23.808;2023-09-07T18:52:33;95224.50;;;19.46;82.36
62978;BME280;49073;42.352;23.808;2023-09-07T18:55:33;95202.75;;;19.57;82.56
62978;BME280;49073;42.352;23.808;2023-09-07T18:58:35;95207.41;;;19.56;81.32
62978;BME280;49073;42.352;23.808;2023-09-07T19:01:36;95203.69;;;19.36;81.88
62978;BME280;49073;42.352;23.808;2023-09-07T19:04:37;95196.81;;;19.31;82.22
62978;BME280;49073;42.352;23.808;2023-09-07T19:07:39;95212.19;;;19.38;82.82
62978;BME280;49073;42.352;23.808;2023-09-07T19:10:40;95190.16;;;19.39;82.68
62978;BME280;49073;42.352;23.808;2023-09-07T19:13:40;95205.97;;;19.44;81.81
62978;BME280;49073;42.352;23.808;2023-09-07T19:16:41;95218.19;;;19.60;81.06
62978;BME280;49073;42.352;23.808;2023-09-07T19:19:41;95207.00;;;19.58;80.79
62978;BME280;49073;42.352;23.808;2023-09-07T19:22:42;95213.63;;;19.50;81.59
62978;BME280;49073;42.352;23.808;2023-09-07T19:25:43;95211.38;;;19.44;81.79
62978;BME280;49073;42.352;23.808;2023-09-07T19:28:45;95204.91;;;19.27;82.41
62978;BME280;49073;42.352;23.808;2023-09-07T19:31:46;95213.03;;;19.27;82.77
62978;BME280;49073;42.352;23.808;2023-09-07T19:34:47;95212.31;;;19.19;82.24
62978;BME280;49073;42.352;23.808;2023-09-07T19:37:47;95214.28;;;19.12;82.45
62978;BME280;49073;42.352;23.808;2023-09-07T19:40:48;95217.38;;;19.10;84.01
62978;BME280;49073;42.352;23.808;2023-09-07T19:43:50;95213.81;;;19.24;82.35
62978;BME280;49073;42.352;23.808;2023-09-07T19:46:50;95204.25;;;19.12;83.33
62978;BME280;49073;42.352;23.808;2023-09-07T19:49:51;95210.09;;;19.03;84.88
62978;BME280;49073;42.352;23.808;2023-09-07T19:52:51;95202.25;;;19.20;83.75
62978;BME280;49073;42.352;23.808;2023-09-07T19:55:52;95198.41;;;19.21;83.71
62978;BME280;49073;42.352;23.808;2023-09-07T19:58:53;95208.84;;;19.19;83.33
62978;BME280;49073;42.352;23.808;2023-09-07T20:01:59;95210.00;;;19.22;82.40
62978;BME280;49073;42.352;23.808;2023-09-07T20:05:01;95208.56;;;19.02;83.20
62978;BME280;49073;42.352;23.808;2023-09-07T20:08:04;95209.75;;;18.90;84.12
62978;BME280;49073;42.352;23.808;2023-09-07T20:11:09;95219.38;;;18.92;84.55
62978;BME280;49073;42.352;23.808;2023-09-07T20:14:10;95224.34;;;19.04;83.09
62978;BME280;49073;42.352;23.808;2023-09-07T20:17:11;95219.38;;;18.95;82.59
62978;BME280;49073;42.352;23.808;2023-09-07T20:20:11;95216.38;;;18.75;83.54
62978;BME280;49073;42.352;23.808;2023-09-07T20:23:12;95222.56;;;18.68;84.64
62978;BME280;49073;42.352;23.808;2023-09-07T20:26:13;95213.75;;;18.60;85.76
62978;BME280;49073;42.352;23.808;2023-09-07T20:29:14;95215.72;;;18.56;85.44
62978;BME280;49073;42.352;23.808;2023-09-07T20:32:14;95206.06;;;18.52;85.03
62978;BME280;49073;42.352;23.808;2023-09-07T20:35:15;95213.31;;;18.73;83.94
62978;BME280;49073;42.352;23.808;2023-09-07T20:38:16;95210.28;;;18.60;83.90
62978;BME280;49073;42.352;23.808;2023-09-07T20:41:16;95206.41;;;18.61;84.05
62978;BME280;49073;42.352;23.808;2023-09-07T20:44:17;95213.75;;;18.57;85.13
62978;BME280;49073;42.352;23.808;2023-09-07T20:47:18;95207.97;;;18.55;85.14
62978;BME280;49073;42.352;23.808;2023-09-07T20:50:18;95206.78;;;18.63;84.92
62978;BME280;49073;42.352;23.808;2023-09-07T20:53:20;95205.66;;;18.57;85.46
62978;BME280;49073;42.352;23.808;2023-09-07T20:56:20;95206.09;;;18.44;86.52
62978;BME280;49073;42.352;23.808;2023-09-07T20:59:21;95198.72;;;18.52;86.70
62978;BME280;49073;42.352;23.808;2023-09-07T21:02:22;95207.22;;;18.51;86.59
62978;BME280;49073;42.352;23.808;2023-09-07T21:05:22;95209.13;;;18.65;86.64
62978;BME280;49073;42.352;23.808;2023-09-07T21:08:23;95203.34;;;18.63;86.56
62978;BME280;49073;42.352;23.808;2023-09-07T21:11:24;95201.06;;;18.50;86.97
62978;BME280;49073;42.352;23.808;2023-09-07T21:14:24;95201.50;;;18.41;87.95
62978;BME280;49073;42.352;23.808;2023-09-07T21:17:25;95196.03;;;18.56;87.16
62978;BME280;49073;42.352;23.808;2023-09-07T21:20:26;95201.47;;;18.49;88.30
62978;BME280;49073;42.352;23.808;2023-09-07T21:23:26;95203.41;;;18.41;88.14
62978;BME280;49073;42.352;23.808;2023-09-07T21:26:27;95191.78;;;18.51;88.49
62978;BME280;49073;42.352;23.808;2023-09-07T21:29:28;95196.84;;;18.42;88.59
62978;BME280;49073;42.352;23.808;2023-09-07T21:32:28;95201.09;;;18.36;89.04
62978;BME280;49073;42.352;23.808;2023-09-07T21:35:29;95210.78;;;18.22;90.28
62978;BME280;49073;42.352;23.808;2023-09-07T21:38:30;95218.88;;;18.18;90.29
62978;BME280;49073;42.352;23.808;2023-09-07T21:41:43;95223.53;;;18.14;89.31
62978;BME280;49073;42.352;23.808;2023-09-07T21:44:46;95233.56;;;18.07;89.88
62978;BME280;49073;42.352;23.808;2023-09-07T21:47:46;95234.72;;;17.98;89.12
62978;BME280;49073;42.352;23.808;2023-09-07T21:50:47;95237.41;;;18.09;88.83
62978;BME280;49073;42.352;23.808;2023-09-07T21:53:49;95234.28;;;18.36;87.72
62978;BME280;49073;42.352;23.808;2023-09-07T21:56:49;95243.09;;;18.48;86.67
62978;BME280;49073;42.352;23.808;2023-09-07T21:59:51;95240.06;;;18.27;87.98
62978;BME280;49073;42.352;23.808;2023-09-07T22:02:51;95246.22;;;18.35;86.76
62978;BME280;49073;42.352;23.808;2023-09-07T22:05:53;95244.28;;;18.25;86.67
62978;BME280;49073;42.352;23.808;2023-09-07T22:08:54;95240.47;;;18.15;86.34
62978;BME280;49073;42.352;23.808;2023-09-07T22:11:55;95241.22;;;18.23;86.17
62978;BME280;49073;42.352;23.808;2023-09-07T22:14:56;95254.31;;;18.35;85.64
62978;BME280;49073;42.352;23.808;2023-09-07T22:17:56;95238.91;;;18.32;85.20
62978;BME280;49073;42.352;23.808;2023-09-07T22:20:57;95248.53;;;18.40;84.81
62978;BME280;49073;42.352;23.808;2023-09-07T22:23:58;95258.13;;;18.49;84.48
62978;BME280;49073;42.352;23.808;2023-09-07T22:26:58;95260.44;;;18.54;83.98
62978;BME280;49073;42.352;23.808;2023-09-07T22:29:59;95269.31;;;18.40;85.06
62978;BME280;49073;42.352;23.808;2023-09-07T22:32:59;95268.91;;;18.45;84.86
62978;BME280;49073;42.352;23.808;2023-09-07T22:36:00;95273.59;;;18.34;84.11
62978;BME280;49073;42.352;23.808;2023-09-07T22:39:01;95288.25;;;18.36;85.53
62978;BME280;49073;42.352;23.808;2023-09-07T22:42:01;95280.53;;;18.27;87.25
62978;BME280;49073;42.352;23.808;2023-09-07T22:45:03;95280.56;;;18.20;88.02
62978;BME280;49073;42.352;23.808;2023-09-07T22:48:04;95281.69;;;18.37;87.52
62978;BME280;49073;42.352;23.808;2023-09-07T22:51:05;95279.75;;;18.34;86.30
62978;BME280;49073;42.352;23.808;2023-09-07T22:54:06;95279.31;;;18.54;86.05
62978;BME280;49073;42.352;23.808;2023-09-07T22:57:07;95282.03;;;18.54;85.64
62978;BME280;49073;42.352;23.808;2023-09-07T23:00:07;95285.06;;;18.67;84.79
62978;BME280;49073;42.352;23.808;2023-09-07T23:03:09;95282.00;;;18.65;84.35
62978;BME280;49073;42.352;23.808;2023-09-07T23:06:09;95286.22;;;18.62;84.25
62978;BME280;49073;42.352;23.808;2023-09-07T23:09:10;95285.44;;;18.72;83.80
62978;BME280;49073;42.352;23.808;2023-09-07T23:12:12;95289.72;;;18.63;84.25
62978;BME280;49073;42.352;23.808;2023-09-07T23:15:13;95292.00;;;18.68;83.47
62978;BME280;49073;42.352;23.808;2023-09-07T23:18:14;95284.28;;;18.70;84.72
62978;BME280;49073;42.352;23.808;2023-09-07T23:21:14;95288.88;;;18.76;84.78
62978;BME280;49073;42.352;23.808;2023-09-07T23:24:15;95286.19;;;18.80;85.53
62978;BME280;49073;42.352;23.808;2023-09-07T23:27:16;95280.00;;;18.87;84.50
62978;BME280;49073;42.352;23.808;2023-09-07T23:30:16;95282.69;;;18.80;85.68
62978;BME280;49073;42.352;23.808;2023-09-07T23:33:17;95269.59;;;18.78;86.71
62978;BME280;49073;42.352;23.808;2023-09-07T23:36:18;95278.09;;;18.73;86.98
62978;BME280;49073;42.352;23.808;2023-09-07T23:39:18;95271.09;;;18.86;87.37
62978;BME280;49073;42.352;23.808;2023-09-07T23:42:19;95270.38;;;18.75;86.83
62978;BME280;49073;42.352;23.808;2023-09-07T23:45:19;95261.84;;;18.84;87.61
62978;BME280;49073;42.352;23.808;2023-09-07T23:48:20;95271.94;;;18.72;85.77
62978;BME280;49073;42.352;23.808;2023-09-07T23:51:21;95278.09;;;18.73;86.58
62978;BME280;49073;42.352;23.808;2023-09-07T23:54:21;95251.16;;;18.55;87.12
62978;BME280;49073;42.352;23.808;2023-09-07T23:57:22;95277.34;;;18.65;86.91
